VTSR

Ranong Airport

Thailand
TAF VTSR 171100Z 1712/1812 24013KT 9000 BKN020 TEMPO 1714/1720 24015G30KT 3000 TSRA FEW018CB SCT020 BKN100 TEMPO 1800/1806 24015G30KT 3000 TSRA FEW018CB SCT020 BKN100 TEMPO 1808/1812 24015G30KT 3000 TSRA FEW018CB SCT020 BKN100
Issued Valid From Valid To
Aug-17 @ 11:00 UTC
(4 hours ago)
Aug-17 @ 12:00 UTC
(3 hours ago)
Aug-18 @ 12:00 UTC
(in 21 hours)
Aug-17 @ 12:00 to Aug-18 @ 12:00
TAF VTSR 171100Z 1712/1812 24013KT 9000 BKN020
Wind Visibility Clouds
240° at 13 knots 8,996 meters
  • Broken at 2,000' AGL
Temporary Aug-17 @ 14:00 to Aug-17 @ 20:00
TEMPO 1714/1720 24015G30KT 3000 TSRA FEW018CB SCT020 BKN100
Wind Visibility Clouds Conditions
240° at 15 knots
 Gusting to 30 knots
2,993 meters
  • Few at 1,800' AGL
  • Scattered at 2,000' AGL
  • Broken at 10,000' AGL
  • Thunderstorm
  • Rain
Temporary Aug-18 @ 00:00 to Aug-18 @ 06:00
TEMPO 1800/1806 24015G30KT 3000 TSRA FEW018CB SCT020 BKN100
Wind Visibility Clouds Conditions
240° at 15 knots
 Gusting to 30 knots
2,993 meters
  • Few at 1,800' AGL
  • Scattered at 2,000' AGL
  • Broken at 10,000' AGL
  • Thunderstorm
  • Rain
Temporary Aug-18 @ 08:00 to Aug-18 @ 12:00
TEMPO 1808/1812 24015G30KT 3000 TSRA FEW018CB SCT020 BKN100
Wind Visibility Clouds Conditions
240° at 15 knots
 Gusting to 30 knots
2,993 meters
  • Few at 1,800' AGL
  • Scattered at 2,000' AGL
  • Broken at 10,000' AGL
  • Thunderstorm
  • Rain
TAF VTSR 171100Z 1712/1812 24013KT 9000 BKN020 TEMPO 1714/1720 24015G30KT 3000 TSRA FEW018CB SCT020 BKN100 TEMPO 1800/1806 24015G30KT 3000 TSRA FEW018CB SCT020 BKN100 TEMPO 1808/1812 24015G30KT 3000 TSRA FEW018CB SCT020 BKN100
Issued Aug-17 @ 11:00 UTC
(4 hours ago)
Valid From Aug-17 @ 12:00 UTC
(3 hours ago)
Valid To Aug-18 @ 12:00 UTC
(in 21 hours)
Aug-17 @ 12:00 - Aug-18 @ 12:00
Wind Visibility
240° at 13 knots 8,996 meters
Clouds
  • Broken at 2,000' AGL
Temporary Aug-17 @ 14:00 - Aug-17 @ 20:00
Wind Visibility
240° at 15 knots
 Gusting to 30 knots
2,993 meters
Clouds
  • Few at 1,800' AGL
  • Scattered at 2,000' AGL
  • Broken at 10,000' AGL
Conditions
  • Thunderstorm
  • Rain
Temporary Aug-18 @ 00:00 - Aug-18 @ 06:00
Wind Visibility
240° at 15 knots
 Gusting to 30 knots
2,993 meters
Clouds
  • Few at 1,800' AGL
  • Scattered at 2,000' AGL
  • Broken at 10,000' AGL
Conditions
  • Thunderstorm
  • Rain
Temporary Aug-18 @ 08:00 - Aug-18 @ 12:00
Wind Visibility
240° at 15 knots
 Gusting to 30 knots
2,993 meters
Clouds
  • Few at 1,800' AGL
  • Scattered at 2,000' AGL
  • Broken at 10,000' AGL
Conditions
  • Thunderstorm
  • Rain